createdAt,value
2016-10-06T00:00:25.674Z,0
2016-10-06T00:01:27.678Z,0
2016-10-06T00:02:26.718Z,0
2016-10-06T00:03:25.975Z,0
2016-10-06T00:04:27.352Z,0
2016-10-06T00:05:26.283Z,0
2016-10-06T00:06:27.124Z,0
2016-10-06T00:07:26.198Z,0
2016-10-06T00:08:26.770Z,0
2016-10-06T00:09:26.297Z,0
2016-10-06T00:10:27.817Z,0
2016-10-06T00:11:27.239Z,0
2016-10-06T00:12:27.564Z,0
2016-10-06T00:13:26.455Z,0
2016-10-06T00:14:27.218Z,0
2016-10-06T00:15:28.180Z,0
2016-10-06T00:16:28.217Z,0
2016-10-06T00:17:27.239Z,0
2016-10-06T00:18:27.466Z,0
2016-10-06T00:19:26.157Z,0
2016-10-06T00:20:26.000Z,0
2016-10-06T00:21:26.947Z,0
2016-10-06T00:22:26.937Z,0
2016-10-06T00:23:28.153Z,0
2016-10-06T00:24:26.426Z,0
2016-10-06T00:25:26.837Z,0
2016-10-06T00:26:28.149Z,0
2016-10-06T00:27:27.146Z,0
2016-10-06T00:28:27.498Z,0
2016-10-06T00:29:26.169Z,0
2016-10-06T00:30:27.346Z,0
2016-10-06T00:31:27.041Z,0
2016-10-06T00:32:27.125Z,0
2016-10-06T00:33:27.312Z,0
2016-10-06T00:34:26.617Z,0
2016-10-06T00:35:27.421Z,0
2016-10-06T00:36:26.404Z,0
2016-10-06T00:37:28.888Z,0
2016-10-06T00:38:26.990Z,0
2016-10-06T00:39:28.736Z,0
2016-10-06T00:40:27.207Z,0
2016-10-06T00:41:29.012Z,0
2016-10-06T00:42:26.954Z,0
2016-10-06T00:43:27.511Z,0
2016-10-06T00:44:28.558Z,0
2016-10-06T00:45:28.145Z,0
2016-10-06T00:46:28.389Z,0
2016-10-06T00:47:27.995Z,0
2016-10-06T00:48:28.946Z,0
2016-10-06T00:49:26.945Z,0
2016-10-06T00:50:27.020Z,0
2016-10-06T00:51:26.507Z,0
2016-10-06T00:52:27.390Z,0
2016-10-06T00:53:27.739Z,0
2016-10-06T00:54:27.585Z,0
2016-10-06T00:55:28.129Z,0
2016-10-06T00:56:28.647Z,0
2016-10-06T00:57:27.238Z,0
2016-10-06T00:58:27.412Z,0
2016-10-06T00:59:26.443Z,0
2016-10-06T01:00:28.148Z,0
2016-10-06T01:01:28.628Z,0
2016-10-06T01:02:27.590Z,0
2016-10-06T01:03:28.668Z,0
2016-10-06T01:04:27.381Z,0
2016-10-06T01:05:27.388Z,0
2016-10-06T01:06:28.582Z,0
2016-10-06T01:07:27.993Z,0
2016-10-06T01:08:28.721Z,0
2016-10-06T01:09:27.513Z,0
2016-10-06T01:10:27.840Z,0
2016-10-06T01:11:26.938Z,0
2016-10-06T01:12:29.224Z,0
2016-10-06T01:13:27.359Z,0
2016-10-06T01:14:27.626Z,0
2016-10-06T01:15:28.467Z,0
2016-10-06T01:16:27.368Z,0
2016-10-06T01:17:27.586Z,0
2016-10-06T01:18:28.150Z,0
2016-10-06T01:19:27.637Z,0
2016-10-06T01:20:28.668Z,0
2016-10-06T01:21:27.491Z,0
2016-10-06T01:22:29.639Z,0
2016-10-06T01:23:27.493Z,0
2016-10-06T01:24:28.014Z,0
2016-10-06T01:25:29.017Z,0
2016-10-06T01:26:27.889Z,0
2016-10-06T01:27:27.944Z,0
2016-10-06T01:28:28.526Z,0
2016-10-06T01:29:28.118Z,0
2016-10-06T01:30:28.150Z,0
2016-10-06T01:31:28.107Z,0
2016-10-06T01:32:27.818Z,0
2016-10-06T01:33:28.062Z,0
2016-10-06T01:34:28.991Z,0
2016-10-06T01:35:27.217Z,0
2016-10-06T01:36:28.487Z,0
2016-10-06T01:37:28.473Z,0
2016-10-06T01:38:28.799Z,0
2016-10-06T01:39:29.090Z,0
2016-10-06T01:40:28.570Z,0
2016-10-06T01:41:28.074Z,0
2016-10-06T01:42:28.355Z,0
2016-10-06T01:43:27.531Z,0
2016-10-06T01:44:28.728Z,0
2016-10-06T01:45:28.599Z,0
2016-10-06T01:46:27.673Z,0
2016-10-06T01:47:28.258Z,0
2016-10-06T01:48:28.301Z,0
2016-10-06T01:49:28.823Z,0
2016-10-06T01:50:28.177Z,0
2016-10-06T01:51:28.863Z,0
2016-10-06T01:52:28.175Z,0
2016-10-06T01:53:29.275Z,0
2016-10-06T01:54:28.256Z,0
2016-10-06T01:55:28.600Z,0
2016-10-06T01:56:28.545Z,0
2016-10-06T01:57:29.195Z,0
2016-10-06T01:58:28.766Z,0
2016-10-06T01:59:29.370Z,0
2016-10-06T02:00:28.060Z,0
2016-10-06T02:01:27.881Z,0
2016-10-06T02:02:28.549Z,0
2016-10-06T02:03:28.757Z,0
2016-10-06T02:04:28.466Z,0
2016-10-06T02:05:28.292Z,0
2016-10-06T02:06:27.934Z,0
2016-10-06T02:07:27.458Z,0
2016-10-06T02:08:28.910Z,0
2016-10-06T02:09:29.094Z,0
2016-10-06T02:10:28.868Z,0
2016-10-06T02:11:29.155Z,0
2016-10-06T02:12:28.351Z,0
2016-10-06T02:13:28.663Z,0
2016-10-06T02:14:28.140Z,0
2016-10-06T02:15:29.003Z,0
2016-10-06T02:16:28.166Z,0
2016-10-06T02:17:28.558Z,0
2016-10-06T02:18:28.252Z,0
2016-10-06T02:19:27.730Z,0
2016-10-06T02:20:29.459Z,0
2016-10-06T02:21:28.978Z,0
2016-10-06T02:22:27.973Z,0
2016-10-06T02:23:29.090Z,0
2016-10-06T02:24:29.944Z,0
2016-10-06T02:25:28.142Z,0
2016-10-06T02:26:29.043Z,0
2016-10-06T02:27:29.499Z,0
2016-10-06T02:28:29.198Z,0
2016-10-06T02:29:29.079Z,0
2016-10-06T02:30:29.427Z,0
2016-10-06T02:31:29.349Z,0
2016-10-06T02:32:28.898Z,0
2016-10-06T02:33:28.560Z,0
2016-10-06T02:34:30.566Z,0
2016-10-06T02:35:28.934Z,0
2016-10-06T02:36:29.490Z,0
2016-10-06T02:37:28.926Z,0
2016-10-06T02:38:29.754Z,0
2016-10-06T02:39:28.427Z,0
2016-10-06T02:40:29.693Z,0
2016-10-06T02:41:29.707Z,0
2016-10-06T02:42:30.352Z,0
2016-10-06T02:43:29.129Z,0
2016-10-06T02:44:28.947Z,0
2016-10-06T02:45:28.607Z,0
2016-10-06T02:46:30.156Z,0
2016-10-06T02:47:29.830Z,0
2016-10-06T02:48:30.531Z,0
2016-10-06T02:49:28.602Z,0
2016-10-06T02:50:28.236Z,0
2016-10-06T02:51:29.819Z,0
2016-10-06T02:52:28.995Z,0
2016-10-06T02:53:29.944Z,0
2016-10-06T02:54:28.814Z,0
2016-10-06T02:55:29.629Z,0
2016-10-06T02:56:29.192Z,0
2016-10-06T02:57:30.145Z,0
2016-10-06T02:58:29.521Z,0
2016-10-06T02:59:29.722Z,0
2016-10-06T03:00:29.894Z,0
2016-10-06T03:01:29.038Z,0
2016-10-06T03:02:30.431Z,0
2016-10-06T03:03:29.235Z,0
2016-10-06T03:04:30.216Z,0
2016-10-06T03:05:30.891Z,0
2016-10-06T03:06:29.907Z,0
2016-10-06T03:07:29.661Z,0
2016-10-06T03:08:29.739Z,0
2016-10-06T03:09:30.712Z,0
2016-10-06T03:10:31.250Z,0
2016-10-06T03:11:29.407Z,0
2016-10-06T03:12:31.217Z,0
2016-10-06T03:13:29.366Z,0
2016-10-06T03:14:29.265Z,0
2016-10-06T03:15:29.680Z,0
2016-10-06T03:16:30.136Z,0
2016-10-06T03:17:29.659Z,0
2016-10-06T03:18:29.563Z,0
2016-10-06T03:19:29.656Z,0
2016-10-06T03:20:30.330Z,0
2016-10-06T03:21:30.348Z,0
2016-10-06T03:22:29.515Z,0
2016-10-06T03:23:29.484Z,0
2016-10-06T03:24:29.674Z,0
2016-10-06T03:25:31.423Z,0
2016-10-06T03:26:30.186Z,0
2016-10-06T03:27:31.001Z,0
2016-10-06T03:28:30.280Z,0
2016-10-06T03:29:29.964Z,0
2016-10-06T03:30:29.919Z,0
2016-10-06T03:31:30.256Z,0
2016-10-06T03:32:29.716Z,0
2016-10-06T03:33:31.597Z,0
2016-10-06T03:34:29.735Z,0
2016-10-06T03:35:29.976Z,0
2016-10-06T03:36:31.399Z,0
2016-10-06T03:37:31.138Z,0
2016-10-06T03:38:29.420Z,0
2016-10-06T03:39:32.290Z,0
2016-10-06T03:40:30.531Z,0
2016-10-06T03:41:30.852Z,0
2016-10-06T03:42:30.678Z,0
2016-10-06T03:43:30.457Z,0
2016-10-06T03:44:30.743Z,0
2016-10-06T03:45:29.845Z,0
2016-10-06T03:46:31.062Z,0
2016-10-06T03:47:30.702Z,0
2016-10-06T03:48:30.049Z,0
2016-10-06T03:49:30.643Z,0
2016-10-06T03:50:30.553Z,0
2016-10-06T03:51:29.698Z,0
2016-10-06T03:52:30.493Z,0
2016-10-06T03:53:31.270Z,0
2016-10-06T03:54:31.911Z,0
2016-10-06T03:55:30.941Z,0
2016-10-06T03:56:31.529Z,0
2016-10-06T03:57:29.197Z,0
2016-10-06T03:58:31.955Z,0
2016-10-06T03:59:30.832Z,0
2016-10-06T04:00:31.235Z,0
2016-10-06T04:01:30.602Z,0
2016-10-06T04:02:31.865Z,0
2016-10-06T04:03:31.598Z,0
2016-10-06T04:04:28.659Z,0
2016-10-06T04:05:30.990Z,0
2016-10-06T04:06:29.994Z,0
2016-10-06T04:07:30.962Z,0
2016-10-06T04:08:30.997Z,0
2016-10-06T04:09:31.342Z,0
2016-10-06T04:10:31.117Z,0
2016-10-06T04:11:30.794Z,0
2016-10-06T04:12:31.141Z,0
2016-10-06T04:13:30.168Z,0
2016-10-06T04:14:29.949Z,0
2016-10-06T04:15:31.028Z,0
2016-10-06T04:16:31.763Z,0
2016-10-06T04:17:31.851Z,0
2016-10-06T04:18:30.930Z,0
2016-10-06T04:19:31.144Z,0
2016-10-06T04:20:30.707Z,0
2016-10-06T04:21:31.877Z,0
2016-10-06T04:22:31.450Z,0
2016-10-06T04:23:31.224Z,0
2016-10-06T04:24:31.131Z,0
2016-10-06T04:25:30.602Z,0
2016-10-06T04:26:30.544Z,0
2016-10-06T04:27:30.947Z,0
2016-10-06T04:28:30.930Z,0
2016-10-06T04:29:30.950Z,0
2016-10-06T04:30:30.976Z,0
2016-10-06T04:31:30.175Z,0
2016-10-06T04:32:31.552Z,0
2016-10-06T04:33:30.887Z,0
2016-10-06T04:34:30.766Z,0
2016-10-06T04:35:29.947Z,0
2016-10-06T04:36:30.878Z,0
2016-10-06T04:37:32.526Z,0
2016-10-06T04:38:31.334Z,0
2016-10-06T04:39:30.679Z,0
2016-10-06T04:40:30.874Z,0
2016-10-06T04:41:30.376Z,0
2016-10-06T04:42:30.245Z,0
2016-10-06T04:43:30.738Z,0
2016-10-06T04:44:31.250Z,0
2016-10-06T04:45:31.751Z,0
2016-10-06T04:46:30.206Z,0
2016-10-06T04:47:31.637Z,0
2016-10-06T04:48:31.773Z,0
2016-10-06T04:49:31.898Z,0
2016-10-06T04:50:31.476Z,0
2016-10-06T04:51:32.347Z,0
2016-10-06T04:52:31.650Z,0
2016-10-06T04:53:30.973Z,0
2016-10-06T04:54:31.814Z,0
2016-10-06T04:55:31.658Z,0
2016-10-06T04:56:31.579Z,0
2016-10-06T04:57:32.896Z,0
2016-10-06T04:58:31.643Z,0
2016-10-06T04:59:31.470Z,0
2016-10-06T05:00:32.107Z,0
2016-10-06T05:01:32.952Z,0
2016-10-06T05:02:31.462Z,0
2016-10-06T05:03:31.645Z,4
2016-10-06T05:04:30.977Z,4
2016-10-06T05:05:32.713Z,4
2016-10-06T05:06:31.362Z,0
2016-10-06T05:07:32.706Z,0
2016-10-06T05:08:31.955Z,4
2016-10-06T05:09:31.670Z,4
2016-10-06T05:10:32.417Z,4
2016-10-06T05:11:31.421Z,4
2016-10-06T05:12:31.421Z,4
2016-10-06T05:13:32.554Z,4
2016-10-06T05:14:31.800Z,8
2016-10-06T05:15:32.066Z,12
2016-10-06T05:16:32.897Z,12
2016-10-06T05:17:31.296Z,16
2016-10-06T05:18:31.465Z,20
2016-10-06T05:19:30.599Z,20
2016-10-06T05:20:33.279Z,24
2016-10-06T05:21:30.940Z,32
2016-10-06T05:22:31.645Z,40
2016-10-06T05:23:31.655Z,48
2016-10-06T05:24:31.757Z,56
2016-10-06T05:25:31.962Z,64
2016-10-06T05:26:31.996Z,80
2016-10-06T05:27:31.322Z,88
2016-10-06T05:28:32.008Z,100
2016-10-06T05:29:33.365Z,108
2016-10-06T05:30:33.119Z,112
2016-10-06T05:31:31.431Z,108
2016-10-06T05:32:31.447Z,104
2016-10-06T05:33:32.450Z,108
2016-10-06T05:34:33.429Z,108
2016-10-06T05:35:34.218Z,120
2016-10-06T05:36:33.390Z,128
2016-10-06T05:37:33.228Z,140
2016-10-06T05:38:34.861Z,144
2016-10-06T05:39:31.196Z,152
2016-10-06T05:40:32.830Z,168
2016-10-06T05:41:32.682Z,176
2016-10-06T05:42:33.239Z,188
2016-10-06T05:43:31.981Z,208
2016-10-06T05:44:31.888Z,216
2016-10-06T05:45:32.515Z,216
2016-10-06T05:46:31.970Z,216
2016-10-06T05:47:33.018Z,228
2016-10-06T05:48:32.111Z,236
2016-10-06T05:49:32.122Z,244
2016-10-06T05:50:32.249Z,252
2016-10-06T05:51:33.520Z,256
2016-10-06T05:52:32.042Z,252
2016-10-06T05:53:32.892Z,248
2016-10-06T05:54:32.440Z,280
2016-10-06T05:55:31.528Z,308
2016-10-06T05:56:32.714Z,304
2016-10-06T05:57:32.573Z,300
2016-10-06T05:58:32.697Z,300
2016-10-06T05:59:32.889Z,328
2016-10-06T06:00:32.272Z,388
2016-10-06T06:01:33.578Z,388
2016-10-06T06:02:32.596Z,380
2016-10-06T06:03:31.931Z,400
2016-10-06T06:04:32.980Z,396
2016-10-06T06:05:32.891Z,432
2016-10-06T06:06:33.097Z,472
2016-10-06T06:07:32.272Z,508
2016-10-06T06:08:32.550Z,508
2016-10-06T06:09:32.932Z,504
2016-10-06T06:10:33.560Z,492
2016-10-06T06:11:32.306Z,484
2016-10-06T06:12:33.304Z,528
2016-10-06T06:13:33.656Z,572
2016-10-06T06:14:33.887Z,616
2016-10-06T06:15:32.789Z,696
2016-10-06T06:16:32.956Z,784
2016-10-06T06:17:33.131Z,708
2016-10-06T06:18:32.802Z,648
2016-10-06T06:19:31.814Z,660
2016-10-06T06:20:32.272Z,628
2016-10-06T06:21:34.176Z,604
2016-10-06T06:22:34.085Z,544
2016-10-06T06:23:33.007Z,532
2016-10-06T06:24:32.877Z,564
2016-10-06T06:25:33.275Z,548
2016-10-06T06:26:32.954Z,516
2016-10-06T06:27:33.767Z,524
2016-10-06T06:28:33.849Z,564
2016-10-06T06:29:33.332Z,508
2016-10-06T06:30:32.620Z,520
2016-10-06T06:31:32.852Z,592
2016-10-06T06:32:32.873Z,572
2016-10-06T06:33:33.663Z,528
2016-10-06T06:34:32.379Z,460
2016-10-06T06:35:33.272Z,416
2016-10-06T06:36:32.983Z,428
2016-10-06T06:37:33.460Z,460
2016-10-06T06:38:33.221Z,468
2016-10-06T06:39:33.631Z,464
2016-10-06T06:40:33.949Z,516
2016-10-06T06:41:33.119Z,516
2016-10-06T06:42:32.673Z,568
2016-10-06T06:43:32.738Z,516
2016-10-06T06:44:33.563Z,532
2016-10-06T06:45:33.507Z,552
2016-10-06T06:46:32.689Z,544
2016-10-06T06:47:33.935Z,516
2016-10-06T06:48:33.194Z,480
2016-10-06T06:49:34.093Z,448
2016-10-06T06:50:32.374Z,440
2016-10-06T06:51:34.233Z,524
2016-10-06T06:52:34.799Z,560
2016-10-06T06:53:33.556Z,596
2016-10-06T06:54:33.081Z,696
2016-10-06T06:55:33.434Z,680
2016-10-06T06:56:33.401Z,660
2016-10-06T06:57:33.400Z,736
2016-10-06T06:58:35.041Z,908
2016-10-06T06:59:34.550Z,804
2016-10-06T07:00:33.367Z,864
2016-10-06T07:01:33.083Z,908
2016-10-06T07:02:31.664Z,1028
2016-10-06T07:03:31.917Z,1088
2016-10-06T07:04:34.409Z,1296
2016-10-06T07:05:32.821Z,1248
2016-10-06T07:06:32.010Z,1412
2016-10-06T07:07:34.501Z,1724
2016-10-06T07:08:33.485Z,1932
2016-10-06T07:09:33.322Z,2260
2016-10-06T07:10:33.864Z,2576
2016-10-06T07:11:33.019Z,3020
2016-10-06T07:12:35.430Z,3568
2016-10-06T07:13:34.482Z,3720
2016-10-06T07:14:32.409Z,3500
2016-10-06T07:15:35.665Z,3552
2016-10-06T07:16:33.254Z,3256
2016-10-06T07:17:34.817Z,3412
2016-10-06T07:18:33.776Z,3148
2016-10-06T07:19:34.019Z,3340
2016-10-06T07:20:35.305Z,3344
2016-10-06T07:21:35.209Z,3464
2016-10-06T07:22:34.714Z,3040
2016-10-06T07:23:34.201Z,2872
2016-10-06T07:24:33.940Z,3640
2016-10-06T07:25:33.072Z,3692
2016-10-06T07:26:32.371Z,4012
2016-10-06T07:27:32.064Z,3976
2016-10-06T07:28:34.353Z,3240
2016-10-06T07:29:34.688Z,3412
2016-10-06T07:30:34.592Z,3784
2016-10-06T07:31:33.346Z,3996
2016-10-06T07:32:36.130Z,4080
2016-10-06T07:33:35.206Z,3836
2016-10-06T07:34:34.175Z,3932
2016-10-06T07:35:33.215Z,4476
2016-10-06T07:36:34.133Z,4348
2016-10-06T07:37:34.143Z,4316
2016-10-06T07:38:33.652Z,4196
2016-10-06T07:39:34.146Z,4416
2016-10-06T07:40:33.463Z,4004
2016-10-06T07:41:34.167Z,3644
2016-10-06T07:42:34.172Z,3332
2016-10-06T07:43:33.715Z,3056
2016-10-06T07:44:34.705Z,2928
2016-10-06T07:45:32.892Z,3208
2016-10-06T07:46:33.892Z,3152
2016-10-06T07:47:33.625Z,2524
2016-10-06T07:48:35.073Z,2504
2016-10-06T07:49:34.741Z,2768
2016-10-06T07:50:34.781Z,2840
2016-10-06T07:51:33.854Z,2900
2016-10-06T07:52:34.562Z,3504
2016-10-06T07:53:34.008Z,3292
2016-10-06T07:54:34.581Z,3596
2016-10-06T07:55:34.777Z,3676
2016-10-06T07:56:35.008Z,3676
2016-10-06T07:57:34.606Z,4068
2016-10-06T07:58:34.742Z,4644
2016-10-06T07:59:34.369Z,4776
2016-10-06T08:00:35.616Z,5024
2016-10-06T08:01:34.940Z,5380
2016-10-06T08:02:34.700Z,5392
2016-10-06T08:03:35.751Z,5596
2016-10-06T08:04:34.029Z,5092
2016-10-06T08:05:34.525Z,5188
2016-10-06T08:06:34.934Z,6380
2016-10-06T08:07:33.893Z,6184
2016-10-06T08:08:35.190Z,5848
2016-10-06T08:10:34.913Z,5228
2016-10-06T08:11:35.962Z,4576
2016-10-06T08:12:36.245Z,3896
2016-10-06T08:13:35.459Z,3544
2016-10-06T08:14:34.711Z,3412
2016-10-06T08:15:34.335Z,3516
2016-10-06T08:16:34.487Z,3744
2016-10-06T08:17:35.303Z,3900
2016-10-06T08:18:35.149Z,4168
2016-10-06T08:19:34.427Z,5324
2016-10-06T08:20:35.247Z,6020
2016-10-06T08:21:35.029Z,5304
2016-10-06T08:22:35.118Z,4916
2016-10-06T08:23:35.709Z,4272
2016-10-06T08:24:35.261Z,4156
2016-10-06T08:25:34.309Z,4268
2016-10-06T08:26:35.654Z,4408
2016-10-06T08:27:36.338Z,3940
2016-10-06T08:28:34.457Z,4708
2016-10-06T08:29:35.620Z,5616
2016-10-06T08:30:34.120Z,6640
2016-10-06T08:31:34.591Z,8000
2016-10-06T08:32:35.039Z,8236
2016-10-06T08:33:35.424Z,9004
2016-10-06T08:34:35.736Z,8796
2016-10-06T08:35:35.399Z,10360
2016-10-06T08:36:35.009Z,10880
2016-10-06T08:37:35.375Z,9816
2016-10-06T08:38:36.143Z,10712
2016-10-06T08:39:35.357Z,11380
2016-10-06T08:40:36.107Z,10960
2016-10-06T08:41:34.914Z,9760
2016-10-06T08:42:36.266Z,8284
2016-10-06T08:43:34.985Z,8108
2016-10-06T08:44:35.675Z,8376
2016-10-06T08:45:35.219Z,8864
2016-10-06T08:46:35.633Z,9600
2016-10-06T08:47:35.570Z,9448
2016-10-06T08:48:35.714Z,11080
2016-10-06T08:49:36.201Z,11332
2016-10-06T08:50:36.316Z,10448
2016-10-06T08:51:35.202Z,9848
2016-10-06T08:52:36.284Z,9680
2016-10-06T08:53:36.291Z,12032
2016-10-06T08:54:34.961Z,14068
2016-10-06T08:55:36.323Z,11624
2016-10-06T08:56:35.117Z,9560
2016-10-06T08:57:35.445Z,9536
2016-10-06T08:58:35.538Z,9660
2016-10-06T08:59:35.287Z,11096
2016-10-06T09:00:36.611Z,11496
2016-10-06T09:01:36.279Z,10128
2016-10-06T09:02:36.257Z,10112
2016-10-06T09:03:35.691Z,10928
2016-10-06T09:04:36.492Z,10056
2016-10-06T09:05:35.046Z,9604
2016-10-06T09:06:36.392Z,10124
2016-10-06T09:07:36.262Z,8768
2016-10-06T09:08:35.938Z,10824
2016-10-06T09:09:35.799Z,11156
2016-10-06T09:10:35.764Z,11728
2016-10-06T09:11:35.347Z,10560
2016-10-06T09:12:34.494Z,9168
2016-10-06T09:13:37.029Z,10536
2016-10-06T09:14:35.690Z,11288
2016-10-06T09:15:36.147Z,10408
2016-10-06T09:16:35.670Z,9728
2016-10-06T09:17:35.851Z,9752
2016-10-06T09:18:35.515Z,9208
2016-10-06T09:19:36.074Z,10520
2016-10-06T09:20:34.969Z,10460
2016-10-06T09:21:36.263Z,12952
2016-10-06T09:22:36.859Z,11984
2016-10-06T09:23:36.139Z,10184
2016-10-06T09:24:35.801Z,8208
2016-10-06T09:25:35.790Z,7152
2016-10-06T09:26:36.910Z,7264
2016-10-06T09:27:36.777Z,7932
2016-10-06T09:28:35.666Z,9284
2016-10-06T09:29:35.804Z,10908
2016-10-06T09:30:35.680Z,12868
2016-10-06T09:31:35.495Z,12408
2016-10-06T09:32:36.352Z,9928
2016-10-06T09:33:35.943Z,8372
2016-10-06T09:34:36.078Z,7108
2016-10-06T09:35:37.660Z,6584
2016-10-06T09:36:36.587Z,7648
2016-10-06T09:37:35.894Z,7068
2016-10-06T09:38:36.681Z,5544
2016-10-06T09:39:36.411Z,5200
2016-10-06T09:40:35.931Z,5916
2016-10-06T09:41:35.691Z,6148
2016-10-06T09:42:36.681Z,6788
2016-10-06T09:43:36.524Z,8828
2016-10-06T09:44:37.150Z,7328
2016-10-06T09:45:36.320Z,5952
2016-10-06T09:46:36.618Z,4980
2016-10-06T09:47:36.770Z,4980
2016-10-06T09:48:36.391Z,6532
2016-10-06T09:49:36.957Z,5840
2016-10-06T09:50:37.005Z,6188
2016-10-06T09:51:36.981Z,6908
2016-10-06T09:52:37.504Z,6352
2016-10-06T09:53:37.567Z,5836
2016-10-06T09:54:38.095Z,6724
2016-10-06T09:55:36.478Z,7308
2016-10-06T09:56:36.134Z,6648
2016-10-06T09:57:35.885Z,6028
2016-10-06T09:58:37.465Z,5612
2016-10-06T09:59:37.353Z,5704
2016-10-06T10:00:35.973Z,6012
2016-10-06T10:01:37.715Z,5872
2016-10-06T10:02:36.650Z,6120
2016-10-06T10:03:37.373Z,5920
2016-10-06T10:04:37.052Z,5676
2016-10-06T10:05:37.251Z,6564
2016-10-06T10:06:36.623Z,6792
2016-10-06T10:07:36.810Z,6048
2016-10-06T10:08:37.613Z,6556
2016-10-06T10:09:36.577Z,7816
2016-10-06T10:10:36.502Z,8168
2016-10-06T10:11:37.366Z,9336
2016-10-06T10:12:37.769Z,8824
2016-10-06T10:13:36.160Z,9464
2016-10-06T10:14:37.147Z,9288
2016-10-06T10:15:37.043Z,8428
2016-10-06T10:16:36.640Z,9532
2016-10-06T10:17:36.952Z,10560
2016-10-06T10:18:37.480Z,11972
2016-10-06T10:19:36.569Z,11436
2016-10-06T10:20:36.246Z,14292
2016-10-06T10:21:36.481Z,15964
2016-10-06T10:22:36.551Z,15740
2016-10-06T10:23:37.192Z,15532
2016-10-06T10:24:35.104Z,13268
2016-10-06T10:25:35.223Z,13416
2016-10-06T10:26:35.784Z,12008
2016-10-06T10:27:35.147Z,11948
2016-10-06T10:28:37.090Z,9928
2016-10-06T10:29:37.413Z,9360
2016-10-06T10:30:36.729Z,8496
2016-10-06T10:31:36.791Z,8468
2016-10-06T10:32:37.557Z,9468
2016-10-06T10:33:37.978Z,11572
2016-10-06T10:34:36.544Z,12580
2016-10-06T10:35:37.698Z,14396
2016-10-06T10:36:36.692Z,18496
2016-10-06T10:37:36.983Z,14076
2016-10-06T10:38:36.948Z,13500
2016-10-06T10:39:37.252Z,13424
2016-10-06T10:40:37.954Z,11492
2016-10-06T10:41:37.066Z,9968
2016-10-06T10:42:37.510Z,10272
2016-10-06T10:43:38.015Z,12796
2016-10-06T10:44:37.111Z,13756
2016-10-06T10:45:36.823Z,12588
2016-10-06T10:46:37.794Z,11192
2016-10-06T10:47:37.428Z,10360
2016-10-06T10:48:37.177Z,11352
2016-10-06T10:49:37.415Z,12036
2016-10-06T10:50:38.402Z,12072
2016-10-06T10:51:37.718Z,11896
2016-10-06T10:52:37.332Z,10844
2016-10-06T10:53:38.318Z,10684
2016-10-06T10:54:38.328Z,10356
2016-10-06T10:55:37.887Z,8744
2016-10-06T10:56:38.357Z,7668
2016-10-06T10:57:37.856Z,7376
2016-10-06T10:58:37.275Z,8020
2016-10-06T10:59:37.687Z,9012
2016-10-06T11:00:37.744Z,9136
2016-10-06T11:01:37.834Z,9176
2016-10-06T11:02:37.828Z,9000
2016-10-06T11:03:38.430Z,8392
2016-10-06T11:04:39.039Z,6552
2016-10-06T11:05:38.166Z,5620
2016-10-06T11:06:39.110Z,5316
2016-10-06T11:07:37.888Z,4924
2016-10-06T11:08:38.523Z,4816
2016-10-06T11:09:38.035Z,5096
2016-10-06T11:10:38.013Z,5496
2016-10-06T11:11:37.831Z,5792
2016-10-06T11:12:37.153Z,5196
2016-10-06T11:13:38.883Z,5176
2016-10-06T11:14:38.147Z,4796
2016-10-06T11:15:37.755Z,4892
2016-10-06T11:16:37.355Z,5324
2016-10-06T11:17:37.554Z,5772
2016-10-06T11:18:39.792Z,6400
2016-10-06T11:19:37.614Z,7240
2016-10-06T11:20:37.946Z,7212
2016-10-06T11:21:38.742Z,5848
2016-10-06T11:22:38.049Z,6364
2016-10-06T11:23:38.199Z,6416
2016-10-06T11:24:38.417Z,6548
2016-10-06T11:25:38.375Z,5884
2016-10-06T11:26:38.469Z,5456
2016-10-06T11:27:37.837Z,5640
2016-10-06T11:28:37.784Z,5892
2016-10-06T11:29:38.083Z,6468
2016-10-06T11:30:38.661Z,6248
2016-10-06T11:31:39.135Z,5848
2016-10-06T11:32:39.406Z,6160
2016-10-06T11:33:37.684Z,6948
2016-10-06T11:34:37.865Z,7692
2016-10-06T11:35:38.885Z,8168
2016-10-06T11:36:39.093Z,7884
2016-10-06T11:37:38.395Z,7800
2016-10-06T11:38:39.159Z,7748
2016-10-06T11:39:38.208Z,8180
2016-10-06T11:40:37.817Z,7776
2016-10-06T11:41:38.692Z,7328
2016-10-06T11:42:38.147Z,6820
2016-10-06T11:43:39.049Z,6968
2016-10-06T11:44:39.578Z,7448
2016-10-06T11:45:38.716Z,7584
2016-10-06T11:46:38.465Z,7480
2016-10-06T11:47:38.314Z,7836
2016-10-06T11:48:39.477Z,8116
2016-10-06T11:49:39.285Z,7696
2016-10-06T11:50:39.356Z,6852
2016-10-06T11:51:38.080Z,6492
2016-10-06T11:52:38.932Z,6240
2016-10-06T11:53:37.847Z,5584
2016-10-06T11:54:38.001Z,5532
2016-10-06T11:55:38.582Z,5920
2016-10-06T11:56:39.717Z,5792
2016-10-06T11:57:38.497Z,5464
2016-10-06T11:58:39.343Z,5704
2016-10-06T11:59:38.336Z,5188
2016-10-06T12:00:40.910Z,4804
2016-10-06T12:01:39.124Z,5248
2016-10-06T12:02:38.612Z,5640
2016-10-06T12:03:38.752Z,5592
2016-10-06T12:04:39.540Z,5268
2016-10-06T12:05:40.000Z,4712
2016-10-06T12:06:39.357Z,4648
2016-10-06T12:07:39.279Z,4348
2016-10-06T12:08:38.992Z,4324
2016-10-06T12:09:39.307Z,4284
2016-10-06T12:10:39.214Z,4128
2016-10-06T12:11:40.025Z,4360
2016-10-06T12:12:38.974Z,4968
2016-10-06T12:13:39.390Z,5696
2016-10-06T12:14:39.770Z,5956
2016-10-06T12:15:39.133Z,4864
2016-10-06T12:16:39.627Z,4532
2016-10-06T12:17:39.312Z,4224
2016-10-06T12:18:38.503Z,3796
2016-10-06T12:19:38.528Z,3848
2016-10-06T12:20:38.337Z,4664
2016-10-06T12:21:39.677Z,5412
2016-10-06T12:22:39.505Z,5196
2016-10-06T12:23:39.440Z,4680
2016-10-06T12:24:39.519Z,4088
2016-10-06T12:25:39.570Z,3324
2016-10-06T12:26:39.610Z,2472
2016-10-06T12:27:39.132Z,2192
2016-10-06T12:28:39.395Z,2360
2016-10-06T12:29:40.229Z,2752
2016-10-06T12:30:38.956Z,3280
2016-10-06T12:31:39.387Z,4268
2016-10-06T12:32:39.056Z,5116
2016-10-06T12:33:38.806Z,5372
2016-10-06T12:34:39.114Z,5936
2016-10-06T12:35:38.963Z,6632
2016-10-06T12:36:38.978Z,6648
2016-10-06T12:37:39.320Z,6992
2016-10-06T12:38:39.517Z,6932
2016-10-06T12:39:39.385Z,7140
2016-10-06T12:40:38.715Z,7900
2016-10-06T12:41:39.653Z,9472
2016-10-06T12:42:40.179Z,7636
2016-10-06T12:43:39.612Z,5964
2016-10-06T12:44:39.384Z,5656
2016-10-06T12:45:39.787Z,5256
2016-10-06T12:46:39.139Z,6084
2016-10-06T12:47:41.038Z,5792
2016-10-06T12:48:40.243Z,6292
2016-10-06T12:49:39.848Z,7372
2016-10-06T12:50:39.424Z,6980
2016-10-06T12:51:40.134Z,8016
2016-10-06T12:52:39.691Z,7156
2016-10-06T12:53:40.005Z,6824
2016-10-06T12:54:39.850Z,7488
2016-10-06T12:55:39.394Z,6684
2016-10-06T12:56:39.578Z,7264
2016-10-06T12:57:39.851Z,8496
2016-10-06T12:58:40.401Z,8584
2016-10-06T12:59:39.925Z,9272
2016-10-06T13:00:40.371Z,10764
2016-10-06T13:01:40.454Z,9604
2016-10-06T13:02:40.912Z,7388
2016-10-06T13:03:40.956Z,6608
2016-10-06T13:04:40.090Z,7140
2016-10-06T13:05:39.107Z,6976
2016-10-06T13:06:40.671Z,7536
2016-10-06T13:07:40.479Z,6848
2016-10-06T13:08:41.977Z,6416
2016-10-06T13:09:41.448Z,6316
2016-10-06T13:10:39.647Z,7184
2016-10-06T13:11:40.475Z,8036
2016-10-06T13:12:40.128Z,8064
2016-10-06T13:13:39.624Z,8780
2016-10-06T13:14:41.972Z,8504
2016-10-06T13:15:39.560Z,8668
2016-10-06T13:16:40.961Z,7572
2016-10-06T13:17:40.312Z,7628
2016-10-06T13:18:41.647Z,7240
2016-10-06T13:19:39.483Z,6792
2016-10-06T13:20:40.411Z,5692
2016-10-06T13:21:39.679Z,4952
2016-10-06T13:22:40.767Z,4688
2016-10-06T13:23:40.457Z,5020
2016-10-06T13:24:41.040Z,5188
2016-10-06T13:25:40.092Z,5324
2016-10-06T13:26:40.555Z,6148
2016-10-06T13:27:40.207Z,5512
2016-10-06T13:28:41.092Z,5712
2016-10-06T13:29:41.120Z,5732
2016-10-06T13:30:41.990Z,5448
2016-10-06T13:31:42.447Z,4968
2016-10-06T13:32:40.875Z,4868
2016-10-06T13:33:40.496Z,4592
2016-10-06T13:34:40.982Z,5256
2016-10-06T13:35:40.409Z,4908
2016-10-06T13:36:40.231Z,5924
2016-10-06T13:37:40.389Z,5876
2016-10-06T13:38:39.715Z,5500
2016-10-06T13:39:40.482Z,5280
2016-10-06T13:40:41.198Z,4964
2016-10-06T13:41:40.481Z,5316
2016-10-06T13:42:41.321Z,5260
2016-10-06T13:43:40.403Z,5764
2016-10-06T13:44:40.921Z,5640
2016-10-06T13:45:40.469Z,5160
2016-10-06T13:46:40.265Z,4692
2016-10-06T13:47:40.611Z,5100
2016-10-06T13:48:40.262Z,4588
2016-10-06T13:49:40.959Z,4128
2016-10-06T13:50:40.933Z,4104
2016-10-06T13:51:40.605Z,4204
2016-10-06T13:52:41.700Z,3764